createdAt,value
2022-08-25T00:02:12.369Z,101741.44
2022-08-25T00:05:10.023Z,101736.50
2022-08-25T00:08:07.762Z,101733.66
2022-08-25T00:11:06.990Z,101728.66
2022-08-25T00:14:07.299Z,101730.28
2022-08-25T00:17:04.985Z,101731.63
2022-08-25T00:20:02.665Z,101725.38
2022-08-25T00:23:00.746Z,101730.72
2022-08-25T00:25:58.654Z,101725.91
2022-08-25T00:29:01.065Z,101731.28
2022-08-25T00:31:59.509Z,101737.06
2022-08-25T00:34:57.659Z,101737.50
2022-08-25T00:37:55.671Z,101729.63
2022-08-25T00:41:08.776Z,101735.75
2022-08-25T00:44:07.777Z,101738.31
2022-08-25T00:47:06.419Z,101727.38
2022-08-25T00:50:05.151Z,101737.34
2022-08-25T00:53:04.175Z,101738.59
2022-08-25T00:56:01.556Z,101736.63
2022-08-25T00:58:59.253Z,101737.84
2022-08-25T01:01:57.170Z,101737.44
2022-08-25T01:04:54.561Z,101737.25
2022-08-25T01:07:52.804Z,101720.63
2022-08-25T01:10:57.054Z,101735.94
2022-08-25T01:13:55.625Z,101742.09
2022-08-25T01:16:53.895Z,101735.19
2022-08-25T01:19:51.251Z,101734.84
2022-08-25T01:22:54.964Z,101727.91
2022-08-25T01:26:01.449Z,101727.28
2022-08-25T01:29:18.028Z,101726.56
2022-08-25T01:32:15.510Z,101718.81
2022-08-25T01:35:14.283Z,101733.69
2022-08-25T01:38:11.807Z,101736.56
2022-08-25T01:41:09.516Z,101734.09
2022-08-25T01:44:06.760Z,101737.75
2022-08-25T01:47:08.624Z,101727.44
2022-08-25T01:50:06.329Z,101730.72
2022-08-25T01:53:24.057Z,101727.03
2022-08-25T01:56:21.792Z,101725.00
2022-08-25T01:59:23.912Z,101721.72
2022-08-25T02:02:22.166Z,101717.56
2022-08-25T02:05:23.360Z,101725.81
2022-08-25T02:08:23.341Z,101715.91
2022-08-25T02:11:22.091Z,101713.00
2022-08-25T02:14:20.062Z,101716.25
2022-08-25T02:17:17.656Z,101713.38
2022-08-25T02:20:14.663Z,101709.72
2022-08-25T02:23:12.890Z,101710.97
2022-08-25T02:26:10.879Z,101711.81
2022-08-25T02:29:09.012Z,101711.03
2022-08-25T02:32:06.600Z,101712.22
2022-08-25T02:35:04.504Z,101717.59
2022-08-25T02:38:01.663Z,101720.44
2022-08-25T02:40:59.962Z,101710.59
2022-08-25T02:43:58.005Z,101711.03
2022-08-25T02:46:55.345Z,101714.28
2022-08-25T02:49:53.019Z,101708.50
2022-08-25T02:52:51.922Z,101703.56
2022-08-25T02:55:49.436Z,101707.69
2022-08-25T02:58:46.854Z,101703.59
2022-08-25T03:01:44.820Z,101697.47
2022-08-25T03:04:43.464Z,101704.47
2022-08-25T03:07:40.771Z,101700.41
2022-08-25T03:10:38.512Z,101696.28
2022-08-25T03:13:35.857Z,101702.06
2022-08-25T03:16:33.892Z,101697.97
2022-08-25T03:19:31.604Z,101700.84
2022-08-25T03:22:28.478Z,101695.09
2022-08-25T03:25:44.480Z,101702.06
2022-08-25T03:28:41.950Z,101697.16
2022-08-25T03:31:40.126Z,101704.94
2022-08-25T03:34:37.713Z,101700.38
2022-08-25T03:37:35.368Z,101705.69
2022-08-25T03:40:33.035Z,101704.44
2022-08-25T03:43:30.543Z,101701.16
2022-08-25T03:46:30.121Z,101704.47
2022-08-25T03:49:27.563Z,101699.13
2022-08-25T03:52:27.715Z,101690.88
2022-08-25T03:55:25.120Z,101687.63
2022-08-25T03:58:22.791Z,101687.25
2022-08-25T04:01:19.822Z,101690.13
2022-08-25T04:04:16.579Z,101685.22
2022-08-25T04:07:14.618Z,101682.34
2022-08-25T04:10:12.496Z,101684.44
2022-08-25T04:13:10.631Z,101680.31
2022-08-25T04:16:20.089Z,101674.53
2022-08-25T04:19:17.387Z,101669.22
2022-08-25T04:22:14.211Z,101661.41
2022-08-25T04:25:11.513Z,101655.66
2022-08-25T04:28:09.902Z,101665.91
2022-08-25T04:31:11.369Z,101661.88
2022-08-25T04:34:28.442Z,101658.56
2022-08-25T04:37:25.694Z,101654.47
2022-08-25T04:40:23.899Z,101665.94
2022-08-25T04:43:27.204Z,101669.63
2022-08-25T04:46:27.156Z,101672.03
2022-08-25T04:49:24.684Z,101675.72
2022-08-25T04:52:21.710Z,101674.91
2022-08-25T04:55:18.768Z,101674.94
2022-08-25T04:58:16.653Z,101686.06
2022-08-25T05:01:18.158Z,101683.19
2022-08-25T05:04:28.442Z,101676.63
2022-08-25T05:07:25.740Z,101665.13
2022-08-25T05:10:22.404Z,101671.72
2022-08-25T05:13:21.725Z,101670.06
2022-08-25T05:16:19.256Z,101668.81
2022-08-25T05:19:16.714Z,101675.00
2022-08-25T05:22:13.781Z,101676.25
2022-08-25T05:25:10.708Z,101674.97
2022-08-25T05:28:07.663Z,101679.09
2022-08-25T05:31:04.925Z,101668.41
2022-08-25T05:34:07.776Z,101667.59
2022-08-25T05:37:06.612Z,101670.91
2022-08-25T05:40:07.445Z,101667.19
2022-08-25T05:43:04.736Z,101667.19
2022-08-25T05:46:01.802Z,101665.09
2022-08-25T05:48:59.150Z,101670.47
2022-08-25T05:51:56.776Z,101679.09
2022-08-25T05:54:54.497Z,101675.81
2022-08-25T05:57:51.373Z,101670.06
2022-08-25T06:00:49.337Z,101673.34
2022-08-25T06:03:47.783Z,101674.59
2022-08-25T06:06:44.476Z,101670.88
2022-08-25T06:09:41.532Z,101674.16
2022-08-25T06:12:39.124Z,101684.38
2022-08-25T06:15:36.734Z,101683.50
2022-08-25T06:18:33.635Z,101677.34
2022-08-25T06:21:30.714Z,101673.63
2022-08-25T06:24:28.320Z,101674.78
2022-08-25T06:27:25.888Z,101673.50
2022-08-25T06:30:24.544Z,101667.84
2022-08-25T06:33:25.907Z,101664.94
2022-08-25T06:36:22.705Z,101673.88
2022-08-25T06:39:19.877Z,101667.31
2022-08-25T06:42:17.004Z,101662.81
2022-08-25T06:45:14.954Z,101676.22
2022-08-25T06:48:11.549Z,101667.97
2022-08-25T06:51:10.232Z,101667.97
2022-08-25T06:54:14.206Z,101676.97
2022-08-25T06:57:11.800Z,101679.72
2022-08-25T07:00:11.338Z,101670.22
2022-08-25T07:03:09.618Z,101670.22
2022-08-25T07:06:07.839Z,101670.44
2022-08-25T07:09:05.816Z,101673.75
2022-08-25T07:12:04.841Z,101671.16
2022-08-25T07:15:19.418Z,101671.78
2022-08-25T07:18:17.721Z,101670.00
2022-08-25T07:21:14.948Z,101668.44
2022-08-25T07:24:12.984Z,101664.69
2022-08-25T07:27:09.956Z,101676.53
2022-08-25T07:30:09.968Z,101687.78
2022-08-25T07:33:08.956Z,101680.38
2022-08-25T07:36:06.925Z,101669.25
2022-08-25T07:39:06.886Z,101681.50
2022-08-25T07:42:04.895Z,101684.31
2022-08-25T07:45:10.273Z,101682.19
2022-08-25T07:48:09.448Z,101684.56
2022-08-25T07:51:11.245Z,101681.16
2022-08-25T07:54:08.724Z,101675.34
2022-08-25T07:57:06.911Z,101679.41
2022-08-25T08:00:06.000Z,101673.72
2022-08-25T08:03:12.879Z,101686.69
2022-08-25T08:06:18.208Z,101686.13
2022-08-25T08:09:16.394Z,101697.53
2022-08-25T08:12:13.935Z,101683.78
2022-08-25T08:15:13.082Z,101691.75
2022-08-25T08:18:10.946Z,101698.31
2022-08-25T08:21:19.964Z,101695.75
2022-08-25T08:24:40.790Z,101688.41
2022-08-25T08:27:35.084Z,101686.72
2022-08-25T08:30:33.110Z,101680.44
2022-08-25T08:33:31.517Z,101676.06
2022-08-25T08:36:32.772Z,101675.59
2022-08-25T08:39:29.872Z,101671.72
2022-08-25T08:42:32.859Z,101667.31
2022-08-25T08:45:50.382Z,101671.88
2022-08-25T08:49:01.535Z,101663.41
2022-08-25T08:52:02.768Z,101656.72
2022-08-25T08:55:01.855Z,101659.38
2022-08-25T08:58:07.577Z,101649.00
2022-08-25T09:01:04.827Z,101647.28
2022-08-25T09:04:26.247Z,101627.78
2022-08-25T09:07:50.484Z,101626.09
2022-08-25T09:11:03.226Z,101629.97
2022-08-25T09:14:22.929Z,101635.78
2022-08-25T09:17:54.783Z,101638.41
2022-08-25T09:21:00.938Z,101631.81
2022-08-25T09:24:31.699Z,101623.69
2022-08-25T09:27:52.511Z,101614.84
2022-08-25T09:31:01.830Z,101602.97
2022-08-25T09:34:00.308Z,101604.16
2022-08-25T09:36:58.109Z,101596.16
2022-08-25T09:39:55.214Z,101591.81
2022-08-25T09:42:58.696Z,101588.91
2022-08-25T09:46:13.722Z,101587.88
2022-08-25T09:49:12.356Z,101575.72
2022-08-25T09:52:32.053Z,101577.00
2022-08-25T09:55:34.305Z,101558.34
2022-08-25T09:58:33.686Z,101565.00
2022-08-25T10:01:34.856Z,101549.63
2022-08-25T10:04:38.738Z,101556.53
2022-08-25T10:07:39.303Z,101552.13
2022-08-25T10:10:47.371Z,101545.03
2022-08-25T10:13:46.997Z,101535.81
2022-08-25T10:16:47.025Z,101534.06
2022-08-25T10:19:44.571Z,101541.50
2022-08-25T10:22:42.411Z,101523.34
2022-08-25T10:25:57.942Z,101525.81
2022-08-25T10:29:37.387Z,101515.78
2022-08-25T10:33:01.037Z,101497.97
2022-08-25T10:36:05.026Z,101485.88
2022-08-25T10:39:02.240Z,101489.34
2022-08-25T10:42:29.741Z,101487.50
2022-08-25T10:45:43.673Z,101478.34
2022-08-25T10:48:47.877Z,101471.16
2022-08-25T10:52:04.239Z,101484.19
2022-08-25T10:55:15.472Z,101483.03
2022-08-25T10:58:37.724Z,101459.56
2022-08-25T11:01:53.863Z,101462.75
2022-08-25T11:04:57.549Z,101457.19
2022-08-25T11:08:12.667Z,101452.78
2022-08-25T11:11:11.651Z,101441.69
2022-08-25T11:14:44.989Z,101451.56
2022-08-25T11:17:42.183Z,101437.31
2022-08-25T11:20:54.292Z,101445.78
2022-08-25T11:24:05.909Z,101434.31
2022-08-25T11:27:05.275Z,101435.88
2022-08-25T11:30:08.974Z,101442.75
2022-08-25T11:33:06.282Z,101428.19
2022-08-25T11:36:29.585Z,101430.22
2022-08-25T11:39:49.035Z,101427.09
2022-08-25T11:43:01.615Z,101433.59
2022-08-25T11:46:10.506Z,101434.31
2022-08-25T11:49:35.733Z,101438.28
2022-08-25T11:52:32.860Z,101435.22
2022-08-25T11:55:34.980Z,101439.84
2022-08-25T11:58:43.966Z,101432.44
2022-08-25T12:01:42.770Z,101431.56
2022-08-25T12:04:45.197Z,101429.38
2022-08-25T12:08:12.268Z,101440.47
2022-08-25T12:11:11.896Z,101414.72
2022-08-25T12:14:16.619Z,101412.56
2022-08-25T12:17:22.037Z,101409.06
2022-08-25T12:20:18.811Z,101411.09
2022-08-25T12:23:16.242Z,101421.25
2022-08-25T12:26:47.947Z,101428.88
2022-08-25T12:29:51.015Z,101404.72
2022-08-25T12:33:00.937Z,101413.59
2022-08-25T12:36:03.009Z,101400.38
2022-08-25T12:39:34.306Z,101410.34
2022-08-25T12:42:36.438Z,101405.84
2022-08-25T12:45:35.233Z,101408.56
2022-08-25T12:48:31.956Z,101412.94
2022-08-25T12:52:11.436Z,101403.84
2022-08-25T12:55:11.427Z,101412.03
2022-08-25T12:58:10.884Z,101402.78
2022-08-25T13:01:35.216Z,101396.06
2022-08-25T13:04:39.249Z,101397.34
2022-08-25T13:07:51.752Z,101399.47
2022-08-25T13:11:02.154Z,101383.13
2022-08-25T13:14:06.887Z,101384.75
2022-08-25T13:17:04.322Z,101377.34
2022-08-25T13:20:15.378Z,101372.41
2022-08-25T13:23:12.578Z,101372.75
2022-08-25T13:26:14.585Z,101373.91
2022-08-25T13:29:17.738Z,101387.63
2022-08-25T13:32:15.014Z,101372.44
2022-08-25T13:35:17.756Z,101375.03
2022-08-25T13:38:17.899Z,101357.84
2022-08-25T13:41:23.458Z,101348.09
2022-08-25T13:44:28.623Z,101365.47
2022-08-25T13:47:33.109Z,101357.91
2022-08-25T13:50:37.096Z,101341.69
2022-08-25T13:53:34.074Z,101339.75
2022-08-25T13:56:41.000Z,101330.97
2022-08-25T13:59:41.005Z,101323.31
2022-08-25T14:02:49.827Z,101326.81
2022-08-25T14:05:47.009Z,101337.78
2022-08-25T14:09:05.198Z,101340.84
2022-08-25T14:12:03.735Z,101333.09
2022-08-25T14:15:09.630Z,101323.50
2022-08-25T14:18:27.377Z,101329.53
2022-08-25T14:21:26.710Z,101322.69
2022-08-25T14:24:24.338Z,101314.44
2022-08-25T14:27:22.482Z,101318.00
2022-08-25T14:30:28.999Z,101313.66
2022-08-25T14:33:30.383Z,101310.22
2022-08-25T14:36:31.688Z,101299.66
2022-08-25T14:39:29.395Z,101303.72
2022-08-25T14:42:27.148Z,101296.59
2022-08-25T14:45:24.107Z,101301.78
2022-08-25T14:48:26.915Z,101309.25
2022-08-25T14:51:24.017Z,101302.09
2022-08-25T14:54:24.295Z,101284.78
2022-08-25T14:57:23.959Z,101285.41
2022-08-25T15:00:21.245Z,101279.25
2022-08-25T15:03:37.830Z,101291.59
2022-08-25T15:06:35.541Z,101289.16
2022-08-25T15:09:33.597Z,101277.28
2022-08-25T15:12:46.783Z,101288.81
2022-08-25T15:15:53.037Z,101260.63
2022-08-25T15:18:50.413Z,101249.69
2022-08-25T15:21:47.219Z,101269.78
2022-08-25T15:24:44.290Z,101264.47
2022-08-25T15:27:42.312Z,101273.56
2022-08-25T15:30:42.047Z,101270.34
2022-08-25T15:33:40.769Z,101279.75
2022-08-25T15:36:38.596Z,101261.09
2022-08-25T15:39:36.512Z,101255.41
2022-08-25T15:42:34.751Z,101253.81
2022-08-25T15:45:33.118Z,101252.84
2022-08-25T15:48:30.181Z,101251.53
2022-08-25T15:51:27.825Z,101248.31
2022-08-25T15:54:26.753Z,101248.94
2022-08-25T15:57:24.542Z,101244.56
2022-08-25T16:00:22.741Z,101234.34
2022-08-25T16:03:20.342Z,101240.81
2022-08-25T16:06:18.618Z,101240.06
2022-08-25T16:09:16.083Z,101253.47
2022-08-25T16:12:20.251Z,101251.53
2022-08-25T16:15:17.445Z,101247.31
2022-08-25T16:18:14.485Z,101250.06
2022-08-25T16:21:15.868Z,101254.13
2022-08-25T16:24:13.263Z,101240.84
2022-08-25T16:27:12.114Z,101235.47
2022-08-25T16:30:13.763Z,101230.13
2022-08-25T16:33:13.471Z,101230.63
2022-08-25T16:36:22.359Z,101216.03
2022-08-25T16:39:20.087Z,101210.38
2022-08-25T16:42:18.324Z,101218.16
2022-08-25T16:45:18.378Z,101216.38
2022-08-25T16:48:15.024Z,101226.25
2022-08-25T16:51:14.806Z,101236.13
2022-08-25T16:54:31.072Z,101232.72
2022-08-25T16:57:28.782Z,101232.38
2022-08-25T17:00:28.585Z,101226.25
2022-08-25T17:03:26.147Z,101227.88
2022-08-25T17:06:23.879Z,101223.31
2022-08-25T17:09:24.125Z,101225.13
2022-08-25T17:12:21.108Z,101216.88
2022-08-25T17:15:22.403Z,101204.56
2022-08-25T17:18:19.187Z,101208.91
2022-08-25T17:21:24.711Z,101217.84
2022-08-25T17:24:22.444Z,101219.44
2022-08-25T17:27:27.183Z,101217.66
2022-08-25T17:30:24.307Z,101216.00
2022-08-25T17:33:23.826Z,101225.72
2022-08-25T17:36:21.329Z,101219.41
2022-08-25T17:39:24.637Z,101229.75
2022-08-25T17:42:22.484Z,101217.19
2022-08-25T17:45:19.275Z,101225.16
2022-08-25T17:48:16.694Z,101224.81
2022-08-25T17:51:16.035Z,101229.16
2022-08-25T17:54:13.608Z,101233.84
2022-08-25T17:57:11.167Z,101233.66
2022-08-25T18:00:12.507Z,101227.66
2022-08-25T18:03:10.510Z,101236.38
2022-08-25T18:06:07.608Z,101232.84
2022-08-25T18:09:06.380Z,101227.63
2022-08-25T18:12:03.670Z,101226.41
2022-08-25T18:15:01.492Z,101242.22
2022-08-25T18:17:59.691Z,101234.09
2022-08-25T18:20:57.168Z,101239.09
2022-08-25T18:23:55.937Z,101235.31
2022-08-25T18:26:53.188Z,101242.47
2022-08-25T18:29:50.700Z,101226.66
2022-08-25T18:32:48.364Z,101238.59
2022-08-25T18:35:46.261Z,101235.00
2022-08-25T18:39:03.966Z,101235.19
2022-08-25T18:42:01.844Z,101250.72
2022-08-25T18:44:59.589Z,101249.69
2022-08-25T18:47:58.296Z,101251.94
2022-08-25T18:50:57.486Z,101248.56
2022-08-25T18:53:59.158Z,101245.44
2022-08-25T18:56:58.257Z,101246.06
2022-08-25T18:59:55.224Z,101240.44
2022-08-25T19:02:55.392Z,101242.03
2022-08-25T19:05:57.290Z,101242.41
2022-08-25T19:08:55.200Z,101248.06
2022-08-25T19:11:52.730Z,101253.31
2022-08-25T19:14:52.307Z,101250.50
2022-08-25T19:17:49.016Z,101248.53
2022-08-25T19:20:46.476Z,101249.16
2022-08-25T19:23:43.265Z,101251.13
2022-08-25T19:26:40.367Z,101248.78
2022-08-25T19:29:38.505Z,101248.84
2022-08-25T19:32:39.055Z,101245.47
2022-08-25T19:35:44.006Z,101243.97
2022-08-25T19:38:41.232Z,101253.59
2022-08-25T19:41:38.314Z,101245.00
2022-08-25T19:44:36.081Z,101252.88
2022-08-25T19:47:33.354Z,101245.00
2022-08-25T19:50:30.608Z,101251.16
2022-08-25T19:53:27.298Z,101242.25
2022-08-25T19:56:24.376Z,101248.75
2022-08-25T19:59:25.741Z,101246.66
2022-08-25T20:02:29.751Z,101247.59
2022-08-25T20:05:27.736Z,101246.41
2022-08-25T20:08:29.650Z,101249.78
2022-08-25T20:11:28.244Z,101252.56
2022-08-25T20:14:25.660Z,101252.06
2022-08-25T20:17:23.971Z,101247.09
2022-08-25T20:20:22.897Z,101252.06
2022-08-25T20:23:39.159Z,101261.00
2022-08-25T20:26:36.575Z,101254.38
2022-08-25T20:29:33.281Z,101249.94
2022-08-25T20:32:31.999Z,101261.56
2022-08-25T20:35:29.426Z,101257.88
2022-08-25T20:38:29.816Z,101253.31
2022-08-25T20:41:27.458Z,101257.97
2022-08-25T20:44:24.723Z,101257.91
2022-08-25T20:47:22.737Z,101243.88
2022-08-25T20:50:19.715Z,101252.75
2022-08-25T20:53:16.616Z,101252.06
2022-08-25T20:56:16.393Z,101250.31
2022-08-25T20:59:13.398Z,101252.56
2022-08-25T21:02:13.985Z,101249.81
2022-08-25T21:05:12.513Z,101244.78
2022-08-25T21:08:09.979Z,101253.59
2022-08-25T21:11:08.916Z,101252.91
2022-08-25T21:14:07.043Z,101247.00
2022-08-25T21:17:05.143Z,101254.13
2022-08-25T21:20:03.757Z,101252.25
2022-08-25T21:23:01.703Z,101246.47
2022-08-25T21:25:59.340Z,101245.59
2022-08-25T21:28:58.077Z,101241.78
2022-08-25T21:31:55.908Z,101241.88
2022-08-25T21:34:54.400Z,101237.53
2022-08-25T21:37:53.233Z,101241.81
2022-08-25T21:40:50.723Z,101235.25
2022-08-25T21:43:49.555Z,101234.56
2022-08-25T21:46:54.143Z,101241.25
2022-08-25T21:49:51.722Z,101235.44
2022-08-25T21:52:48.579Z,101236.91
2022-08-25T21:55:51.614Z,101227.31
2022-08-25T21:58:49.128Z,101227.25
2022-08-25T22:01:46.458Z,101228.38
2022-08-25T22:04:47.055Z,101220.06
2022-08-25T22:07:45.578Z,101222.50
2022-08-25T22:10:45.828Z,101223.56
2022-08-25T22:13:47.484Z,101220.94
2022-08-25T22:16:47.829Z,101220.66
2022-08-25T22:19:45.830Z,101222.72
2022-08-25T22:22:42.422Z,101220.75
2022-08-25T22:25:39.487Z,101228.63
2022-08-25T22:28:36.452Z,101222.91
2022-08-25T22:31:34.640Z,101223.53
2022-08-25T22:34:32.539Z,101221.47
2022-08-25T22:37:30.463Z,101220.66
2022-08-25T22:40:28.216Z,101217.03
2022-08-25T22:43:26.878Z,101208.94
2022-08-25T22:46:27.834Z,101204.09
2022-08-25T22:49:28.568Z,101213.06
2022-08-25T22:52:33.693Z,101211.25
2022-08-25T22:55:31.735Z,101212.97
2022-08-25T22:58:29.611Z,101216.97
2022-08-25T23:01:26.676Z,101205.34
2022-08-25T23:04:25.231Z,101215.47
2022-08-25T23:07:23.998Z,101203.19
2022-08-25T23:10:22.807Z,101201.00
2022-08-25T23:13:34.504Z,101205.78
2022-08-25T23:16:32.238Z,101205.88
2022-08-25T23:19:29.655Z,101206.13
2022-08-25T23:22:27.552Z,101208.34
2022-08-25T23:25:24.813Z,101210.41
2022-08-25T23:28:21.933Z,101214.00
2022-08-25T23:31:19.914Z,101211.75
2022-08-25T23:34:18.625Z,101212.22
2022-08-25T23:37:18.787Z,101210.28
2022-08-25T23:40:19.182Z,101209.81
2022-08-25T23:43:16.560Z,101217.75
2022-08-25T23:46:16.031Z,101213.31
2022-08-25T23:49:13.477Z,101214.56
2022-08-25T23:52:10.667Z,101202.81
2022-08-25T23:55:07.987Z,101201.84
2022-08-25T23:58:06.060Z,101202.38
